Weather at Sumburgh Airport

Public forecast

Using degrees Celsius for public forecast. Weather courtesy of forecast.io.

Current aviation weather report (METAR) for Sumburgh Airport

2022/11/27 02:50 (retrieved 23 minutes ago)

EGPB 270250Z 17023G35KT 3100 -RA BKN008 11/10 Q0997

Closest aviation forecast (TAF) to Sumburgh Airport

Forecast is more than 12 hours old.

Closest forecast is RAF Waddington, 403.8 nm (747.9 km) S.

2022/11/25 15:21 (retrieved 1 day ago)

TAF TAF EGXW 251617Z 2515/2609 CNL